Time;durP1;ratioP1;P1;durP2;ratioP2;P2;SDS_P1;SDS_P2;PMS_P1;PMS_P2;Temp;Humidity;BMP_temperature;BMP_pressure;BME280_temperature;BME280_humidity;BME280_pressure;Samples;Min_cycle;Max_cycle;Signal;HPM_P1;HPM_P2
2022/08/15 00:01:10;;;;;;;5.83;5.13;;;;;;;24.56;63.10;97157.47;4170767;28;20736;-83
2022/08/15 00:03:21;;;;;;;5.87;5.27;;;;;;;24.55;64.10;97164.66;4171807;28;21054;-83
2022/08/15 00:05:25;;;;;;;6.90;5.40;;;;;;;24.56;62.58;97165.47;4174923;28;20634;-83
2022/08/15 00:07:28;;;;;;;6.77;5.87;;;;;;;24.57;62.13;97167.06;4177220;28;20662;-83
2022/08/15 00:09:50;;;;;;;6.70;4.90;;;;;;;24.58;63.13;97164.19;4191499;28;20637;-83
2022/08/15 00:11:59;;;;;;;8.00;5.67;;;;;;;24.58;63.89;97153.53;4161038;28;20736;-83
2022/08/15 00:14:10;;;;;;;7.67;5.80;;;;;;;24.55;64.38;97153.97;4167423;28;20704;-83
2022/08/15 00:16:21;;;;;;;7.27;5.77;;;;;;;24.54;66.44;97149.66;4169484;28;21098;-83
2022/08/15 00:18:28;;;;;;;6.03;5.43;;;;;;;24.50;64.14;97143.13;4178169;28;20635;-83
2022/08/15 00:20:33;;;;;;;6.40;5.80;;;;;;;24.48;65.36;97141.72;4175635;28;20750;-83
2022/08/15 00:22:44;;;;;;;6.20;5.57;;;;;;;24.48;67.05;97137.19;4172985;28;20614;-83
2022/08/15 00:24:50;;;;;;;6.20;5.10;;;;;;;24.42;68.54;97140.72;4173118;28;20644;-83
2022/08/15 00:26:55;;;;;;;7.27;6.57;;;;;;;24.36;68.00;97143.41;4176342;28;20644;-83
2022/08/15 00:29:03;;;;;;;8.70;7.43;;;;;;;24.26;66.33;97143.00;4171829;28;20877;-83
2022/08/15 00:31:08;;;;;;;9.73;8.77;;;;;;;24.18;66.43;97146.72;4171450;28;21456;-83
2022/08/15 00:33:14;;;;;;;8.80;7.73;;;;;;;24.14;66.35;97146.56;4174835;28;20643;-83
2022/08/15 00:35:39;;;;;;;8.30;6.60;;;;;;;24.13;66.44;97139.59;4173772;28;20629;-83
2022/08/15 00:37:42;;;;;;;6.80;6.10;;;;;;;24.14;66.87;97141.22;4177299;28;20718;-83
2022/08/15 00:40:07;;;;;;;10.03;6.60;;;;;;;24.16;65.67;97143.47;4191877;28;20995;-84
2022/08/15 00:42:23;;;;;;;6.67;5.53;;;;;;;24.19;65.85;97140.38;4169701;28;21121;-83
2022/08/15 00:44:40;;;;;;;9.40;5.90;;;;;;;24.22;64.88;97152.44;4169932;28;21296;-83
2022/08/15 00:47:07;;;;;;;6.20;5.60;;;;;;;24.22;64.72;97137.28;4172010;28;20630;-83
2022/08/15 00:49:12;;;;;;;6.60;5.77;;;;;;;24.24;64.80;97145.88;4174020;28;20630;-83
2022/08/15 00:51:17;;;;;;;5.70;4.90;;;;;;;24.25;64.15;97152.88;4190810;28;20639;-83
2022/08/15 00:53:31;;;;;;;6.43;5.80;;;;;;;24.26;64.48;97143.00;4175207;28;21260;-83
2022/08/15 00:55:38;;;;;;;5.73;5.10;;;;;;;24.28;64.94;97157.78;4176000;28;20634;-83
2022/08/15 00:57:44;;;;;;;5.93;5.30;;;;;;;24.31;65.08;97157.34;4173718;28;20640;-83
2022/08/15 01:00:11;;;;;;;6.50;5.83;;;;;;;24.32;66.11;97163.50;4175715;28;20686;-83
2022/08/15 01:02:35;;;;;;;5.60;5.00;;;;;;;24.30;64.51;97158.38;4168240;28;20663;-83
2022/08/15 01:04:39;;;;;;;7.20;5.53;;;;;;;24.30;65.01;97169.03;4171033;28;20640;-83
2022/08/15 01:06:45;;;;;;;6.50;5.43;;;;;;;24.32;65.74;97152.81;4174068;28;20693;-83
2022/08/15 01:08:54;;;;;;;8.07;5.70;;;;;;;24.33;65.91;97160.66;4175469;28;20761;-83
2022/08/15 01:10:58;;;;;;;5.70;5.00;;;;;;;24.31;67.25;97146.69;4172774;28;20632;-83
2022/08/15 01:13:07;;;;;;;8.00;5.70;;;;;;;24.27;66.78;97153.47;4175158;28;20632;-83
2022/08/15 01:15:23;;;;;;;8.23;5.53;;;;;;;24.25;66.46;97152.03;4157996;28;20641;-83
2022/08/15 01:17:44;;;;;;;5.80;5.30;;;;;;;24.23;66.90;97149.56;4172148;28;20634;-83
2022/08/15 01:20:00;;;;;;;7.00;5.20;;;;;;;24.20;66.50;97160.66;4176910;28;20639;-83
2022/08/15 01:22:15;;;;;;;8.57;5.50;;;;;;;24.20;66.38;97163.31;4187869;28;21205;-83
2022/08/15 01:24:48;;;;;;;6.00;5.40;;;;;;;24.21;67.08;97156.97;4186847;28;20630;-83
2022/08/15 01:27:11;;;;;;;6.13;5.53;;;;;;;24.17;67.62;97158.41;4187903;28;20630;-83
2022/08/15 01:29:17;;;;;;;7.10;4.70;;;;;;;24.15;66.68;97152.47;4202980;28;20639;-83
2022/08/15 01:31:22;;;;;;;9.13;5.50;;;;;;;24.16;66.88;97156.00;4166600;28;20686;-83
2022/08/15 01:33:28;;;;;;;7.43;5.63;;;;;;;24.15;66.19;97153.53;4189349;28;21147;-83
2022/08/15 01:35:31;;;;;;;5.87;5.37;;;;;;;24.16;65.32;97156.81;4189321;28;20619;-83
2022/08/15 01:37:44;;;;;;;9.00;5.40;;;;;;;24.17;67.04;97161.09;4158647;28;20659;-83
2022/08/15 01:40:06;;;;;;;8.97;5.60;;;;;;;24.13;67.01;97159.09;4157064;28;20668;-83
2022/08/15 01:42:33;;;;;;;6.33;5.13;;;;;;;24.10;67.49;97156.00;4175061;28;20632;-83
2022/08/15 01:44:44;;;;;;;6.03;5.53;;;;;;;24.07;66.76;97159.09;4172405;28;20632;-83
2022/08/15 01:46:57;;;;;;;6.20;5.60;;;;;;;23.95;65.71;97150.94;4154309;28;21070;-83
2022/08/15 01:49:04;;;;;;;6.33;5.73;;;;;;;23.90;66.85;97158.72;4200023;28;20672;-83
2022/08/15 01:51:10;;;;;;;6.23;5.73;;;;;;;23.88;67.05;97162.66;4171188;28;20672;-83
2022/08/15 01:53:20;;;;;;;7.73;5.80;;;;;;;23.87;67.09;97158.34;4174231;28;20646;-83
2022/08/15 01:55:34;;;;;;;6.27;5.67;;;;;;;23.84;68.27;97150.75;4156030;28;20654;-83
2022/08/15 01:57:46;;;;;;;6.53;5.90;;;;;;;23.82;67.75;97166.16;4189030;28;20665;-83
2022/08/15 01:59:57;;;;;;;6.97;6.10;;;;;;;23.77;68.65;97157.97;4173985;28;20755;-83
2022/08/15 02:02:02;;;;;;;7.13;6.50;;;;;;;23.72;68.88;97168.41;4171607;28;20639;-83
2022/08/15 02:04:28;;;;;;;7.20;6.07;;;;;;;23.72;68.60;97166.59;4171233;28;20729;-83
2022/08/15 02:06:31;;;;;;;7.70;6.50;;;;;;;23.73;69.05;97164.72;4171879;28;20627;-83
2022/08/15 02:08:44;;;;;;;7.73;6.33;;;;;;;23.75;69.37;97170.66;4170221;28;20774;-83
2022/08/15 02:10:49;;;;;;;7.33;6.63;;;;;;;23.75;68.71;97168.00;4150997;28;20632;-83
2022/08/15 02:12:52;;;;;;;7.37;6.67;;;;;;;23.76;69.08;97180.31;4146404;28;20648;-83
2022/08/15 02:15:13;;;;;;;6.87;6.13;;;;;;;23.76;69.97;97180.31;4187790;28;20710;-83
2022/08/15 02:17:17;;;;;;;9.73;6.43;;;;;;;23.75;70.32;97184.81;4173083;28;20680;-83
2022/08/15 02:19:20;;;;;;;7.20;5.90;;;;;;;23.73;69.11;97184.19;4175211;28;20636;-83
2022/08/15 02:21:24;;;;;;;6.80;6.10;;;;;;;23.72;70.43;97184.38;4172898;28;20682;-83
2022/08/15 02:23:40;;;;;;;8.40;6.57;;;;;;;23.69;70.01;97184.81;4155530;28;20728;-83
2022/08/15 02:25:46;;;;;;;6.90;6.30;;;;;;;23.66;70.32;97182.56;4174426;28;21168;-83
2022/08/15 02:27:51;;;;;;;7.23;6.47;;;;;;;23.62;71.12;97176.00;4174765;28;20733;-83
2022/08/15 02:29:55;;;;;;;7.60;6.90;;;;;;;23.55;71.00;97182.34;4156890;28;20627;-83
2022/08/15 02:32:06;;;;;;;7.43;6.63;;;;;;;23.50;70.87;97190.97;4169270;28;20639;-83
2022/08/15 02:34:13;;;;;;;7.43;6.73;;;;;;;23.47;70.18;97185.22;4173536;28;21255;-83
2022/08/15 02:36:20;;;;;;;9.07;7.07;;;;;;;23.48;70.90;97194.84;4157109;28;20639;-83
2022/08/15 02:38:34;;;;;;;7.33;6.60;;;;;;;23.49;71.35;97185.84;4174312;28;20666;-83
2022/08/15 02:40:51;;;;;;;9.40;7.00;;;;;;;23.51;71.30;97186.44;4201147;28;20711;-83
2022/08/15 02:43:03;;;;;;;10.30;7.20;;;;;;;23.52;71.09;97193.41;4170402;28;21215;-83
2022/08/15 02:45:10;;;;;;;7.40;6.80;;;;;;;23.52;70.86;97196.91;4156564;28;20623;-83
2022/08/15 02:47:15;;;;;;;7.50;6.70;;;;;;;23.52;70.94;97199.56;4157284;28;20645;-83
2022/08/15 02:49:27;;;;;;;7.60;6.90;;;;;;;23.53;71.54;97190.56;4157523;28;20689;-83
2022/08/15 02:51:52;;;;;;;7.43;6.73;;;;;;;23.56;70.69;97199.94;4155626;28;21385;-83
2022/08/15 02:53:59;;;;;;;7.77;6.67;;;;;;;23.54;71.79;97191.38;4171094;28;20682;-83
2022/08/15 02:56:26;;;;;;;7.90;7.17;;;;;;;23.53;71.29;97197.69;4174359;28;21089;-83
2022/08/15 02:58:37;;;;;;;7.80;7.00;;;;;;;23.51;71.38;97195.25;4203277;28;20657;-83
2022/08/15 03:00:45;;;;;;;7.40;6.70;;;;;;;23.52;71.97;97201.41;4173748;28;20629;-83
2022/08/15 03:02:54;;;;;;;7.40;6.70;;;;;;;23.50;71.26;97193.63;4167563;28;20675;-83
2022/08/15 03:04:59;;;;;;;7.50;6.80;;;;;;;23.50;71.16;97187.47;4150212;28;20636;-83
2022/08/15 03:07:04;;;;;;;7.57;6.87;;;;;;;23.50;72.28;97187.47;4168190;28;20677;-83
2022/08/15 03:09:09;;;;;;;6.97;6.27;;;;;;;23.47;72.59;97188.72;4168651;28;21150;-83
2022/08/15 03:11:26;;;;;;;7.60;6.43;;;;;;;23.40;72.51;97187.06;4183350;28;21118;-83
2022/08/15 03:13:44;;;;;;;7.50;6.80;;;;;;;23.33;73.36;97180.94;4185083;28;21111;-83
2022/08/15 03:15:52;;;;;;;8.40;7.20;;;;;;;23.26;73.54;97180.13;4169736;28;20639;-83
2022/08/15 03:18:03;;;;;;;7.97;7.27;;;;;;;23.23;72.83;97183.19;4152618;28;20632;-84
2022/08/15 03:20:08;;;;;;;7.27;6.57;;;;;;;23.21;72.58;97188.72;4174338;28;20669;-83
2022/08/15 03:22:16;;;;;;;8.10;6.40;;;;;;;23.21;73.32;97193.22;4162364;28;20643;-83
2022/08/15 03:24:42;;;;;;;8.80;6.57;;;;;;;23.21;73.22;97194.06;4150147;28;20651;-83
2022/08/15 03:26:48;;;;;;;6.70;6.00;;;;;;;23.19;72.78;97193.41;4187061;28;21138;-83
2022/08/15 03:28:54;;;;;;;7.77;7.07;;;;;;;23.18;72.74;97187.47;4153715;28;20644;-82
2022/08/15 03:31:09;;;;;;;7.30;6.70;;;;;;;23.17;72.89;97193.81;4155104;28;20635;-83
2022/08/15 03:33:13;;;;;;;7.30;6.70;;;;;;;23.18;72.50;97190.16;4187853;28;21197;-83
2022/08/15 03:35:21;;;;;;;8.47;7.60;;;;;;;23.16;73.05;97200.19;4185270;28;20639;-83
2022/08/15 03:37:30;;;;;;;7.60;6.90;;;;;;;23.11;72.92;97192.81;4150832;28;20638;-83
2022/08/15 03:39:46;;;;;;;8.60;7.80;;;;;;;23.10;73.57;97195.69;4192073;28;20635;-83
2022/08/15 03:41:54;;;;;;;8.10;7.30;;;;;;;23.09;73.33;97196.69;4173601;28;20672;-83
2022/08/15 03:44:02;;;;;;;8.20;7.40;;;;;;;23.09;73.70;97194.84;4154273;28;20688;-83
2022/08/15 03:46:08;;;;;;;8.30;6.73;;;;;;;23.09;73.90;97202.00;4182784;28;21084;-83
2022/08/15 03:48:25;;;;;;;9.90;7.90;;;;;;;23.09;72.92;97192.19;4204791;28;20621;-83
2022/08/15 03:50:32;;;;;;;8.27;7.47;;;;;;;23.10;73.10;97193.81;4170164;28;21275;-83
2022/08/15 03:52:55;;;;;;;8.00;7.20;;;;;;;23.10;74.05;97190.34;4152941;28;20643;-83
2022/08/15 03:55:01;;;;;;;7.80;7.07;;;;;;;23.09;73.90;97194.84;4166631;28;20670;-83
2022/08/15 03:57:06;;;;;;;8.03;7.30;;;;;;;23.06;74.06;97205.06;4168504;28;20689;-83
2022/08/15 03:59:11;;;;;;;8.07;7.37;;;;;;;23.07;74.04;97201.41;4171414;28;20641;-83
2022/08/15 04:01:29;;;;;;;10.13;7.40;;;;;;;23.05;74.20;97206.94;4185179;28;20732;-83
2022/08/15 04:03:34;;;;;;;8.03;6.80;;;;;;;23.08;73.43;97211.00;4184585;28;20661;-83
2022/08/15 04:05:42;;;;;;;8.50;7.70;;;;;;;23.08;74.59;97211.84;4173408;28;20647;-84
2022/08/15 04:07:48;;;;;;;8.13;7.40;;;;;;;23.07;74.23;97207.53;4176295;28;21009;-83
2022/08/15 04:09:59;;;;;;;8.43;7.63;;;;;;;23.06;74.41;97203.22;4174945;28;20633;-83
2022/08/15 04:12:04;;;;;;;8.27;7.47;;;;;;;23.08;74.42;97208.34;4159220;28;20636;-84
2022/08/15 04:14:29;;;;;;;7.10;6.50;;;;;;;23.09;74.82;97215.31;4157452;28;21042;-83
2022/08/15 04:16:41;;;;;;;7.60;6.60;;;;;;;23.07;74.55;97212.06;4191880;28;21219;-83
2022/08/15 04:19:05;;;;;;;7.60;6.80;;;;;;;23.09;74.66;97204.69;4173293;28;20639;-83
2022/08/15 04:21:14;;;;;;;11.13;8.10;;;;;;;23.07;74.88;97204.88;4187958;28;20673;-83
2022/08/15 04:23:18;;;;;;;8.20;7.43;;;;;;;23.09;74.80;97207.34;4188007;28;20688;-83
2022/08/15 04:25:28;;;;;;;10.43;7.90;;;;;;;23.09;75.20;97210.00;4169730;28;20657;-83
2022/08/15 04:27:45;;;;;;;7.90;6.87;;;;;;;23.05;75.48;97208.75;4153678;28;21014;-83
2022/08/15 04:29:59;;;;;;;7.57;6.70;;;;;;;23.05;74.91;97204.28;4184534;28;20739;-83
2022/08/15 04:32:06;;;;;;;9.50;7.07;;;;;;;23.06;75.08;97205.06;4165979;28;20641;-83
2022/08/15 04:34:09;;;;;;;7.50;6.70;;;;;;;23.07;75.22;97207.53;4170820;28;20627;-83
2022/08/15 04:36:35;;;;;;;8.70;6.57;;;;;;;23.08;74.86;97203.88;4156800;28;20635;-83
2022/08/15 04:38:39;;;;;;;7.37;6.20;;;;;;;23.07;75.13;97196.91;4165451;28;20647;-83
2022/08/15 04:40:44;;;;;;;9.80;6.53;;;;;;;23.08;74.86;97203.88;4153692;28;20679;-83
2022/08/15 04:43:07;;;;;;;10.53;6.60;;;;;;;23.07;74.38;97206.72;4153514;28;21758;-83
2022/08/15 04:45:12;;;;;;;7.90;6.33;;;;;;;23.04;74.50;97199.97;4173808;28;20633;-83
2022/08/15 04:47:16;;;;;;;6.60;6.00;;;;;;;23.05;75.37;97206.94;4172724;28;20650;-83
2022/08/15 04:49:19;;;;;;;6.60;5.90;;;;;;;23.08;75.16;97203.88;4167919;28;20662;-83
2022/08/15 04:51:26;;;;;;;8.43;6.67;;;;;;;23.10;75.29;97207.13;4152477;28;20665;-83
2022/08/15 04:53:40;;;;;;;6.27;5.67;;;;;;;23.13;74.84;97211.25;4173957;28;21238;-84
2022/08/15 04:55:44;;;;;;;9.13;6.27;;;;;;;23.16;73.91;97201.00;4171640;28;20665;-82
2022/08/15 04:57:49;;;;;;;6.73;6.07;;;;;;;23.19;74.57;97209.38;4184145;28;20626;-83
2022/08/15 04:59:58;;;;;;;7.70;5.77;;;;;;;23.23;74.76;97215.13;4162624;28;21256;-83
2022/08/15 05:02:25;;;;;;;9.33;5.77;;;;;;;23.26;74.63;97215.53;4183160;28;20729;-82
2022/08/15 05:04:49;;;;;;;6.63;5.10;;;;;;;23.29;74.08;97217.78;4166924;28;20733;-83
2022/08/15 05:06:53;;;;;;;5.77;5.27;;;;;;;23.35;74.18;97218.84;4169054;28;21317;-83
2022/08/15 05:08:56;;;;;;;7.97;6.17;;;;;;;23.40;74.46;97222.50;4169856;28;20643;-82
2022/08/15 05:11:03;;;;;;;8.70;5.90;;;;;;;23.48;74.31;97224.13;4168570;28;20637;-83
2022/08/15 05:13:12;;;;;;;8.97;5.50;;;;;;;23.53;74.43;97230.50;4152104;28;20641;-82
2022/08/15 05:15:18;;;;;;;9.07;6.00;;;;;;;23.59;74.80;97228.84;4148715;28;20635;-83
2022/08/15 05:17:24;;;;;;;6.70;5.90;;;;;;;23.61;74.48;97224.94;4163205;28;21004;-82
2022/08/15 05:19:47;;;;;;;6.50;5.10;;;;;;;23.64;74.83;97229.91;4180109;28;20746;-82
2022/08/15 05:21:51;;;;;;;7.40;5.67;;;;;;;23.65;73.96;97228.88;4154413;28;20634;-82
2022/08/15 05:23:55;;;;;;;6.80;5.50;;;;;;;23.67;74.76;97224.97;4158107;28;20656;-83
2022/08/15 05:26:05;;;;;;;8.00;5.93;;;;;;;23.69;74.22;97232.75;4170833;28;20646;-83
2022/08/15 05:28:28;;;;;;;7.53;5.30;;;;;;;23.71;74.52;97233.38;4170949;28;20725;-83
2022/08/15 05:30:38;;;;;;;7.17;5.13;;;;;;;23.71;74.09;97228.06;4160993;28;21128;-83
2022/08/15 05:32:43;;;;;;;5.97;5.00;;;;;;;23.67;74.05;97222.31;4164761;28;20656;-83
2022/08/15 05:34:51;;;;;;;6.17;5.07;;;;;;;23.65;74.82;97223.56;4165909;28;20629;-83
2022/08/15 05:36:56;;;;;;;6.03;4.30;;;;;;;23.60;73.41;97215.31;4158991;28;21206;-82
2022/08/15 05:39:15;;;;;;;7.77;4.63;;;;;;;23.50;73.91;97209.59;4168644;28;20681;-81
2022/08/15 05:41:28;;;;;;;5.27;4.30;;;;;;;23.47;74.51;97217.16;4187980;28;20676;-81
2022/08/15 05:43:37;;;;;;;4.60;3.90;;;;;;;23.40;73.93;97211.03;4171919;28;21138;-82
2022/08/15 05:46:01;;;;;;;5.80;4.07;;;;;;;23.31;74.50;97213.06;4189446;28;20637;-82
2022/08/15 05:48:11;;;;;;;6.17;3.80;;;;;;;23.34;73.91;97215.34;4173149;28;20627;-82
2022/08/15 05:50:31;;;;;;;4.93;4.30;;;;;;;23.37;74.27;97219.44;4188886;28;21054;-81
2022/08/15 05:52:46;;;;;;;4.43;3.87;;;;;;;23.33;74.42;97224.38;4186033;28;21343;-82
2022/08/15 05:55:03;;;;;;;5.70;4.10;;;;;;;23.22;74.52;97219.63;4172368;28;21198;-82
2022/08/15 05:57:14;;;;;;;6.70;4.00;;;;;;;23.20;75.05;97223.53;4174132;28;20675;-82
2022/08/15 05:59:31;;;;;;;6.33;4.10;;;;;;;23.16;75.19;97221.47;4165178;28;20636;-82
2022/08/15 06:01:37;;;;;;;6.40;4.13;;;;;;;23.17;75.77;97231.91;4154932;28;20668;-82
2022/08/15 06:03:45;;;;;;;5.07;4.57;;;;;;;23.13;75.40;97222.69;4171321;28;20759;-82
2022/08/15 06:05:53;;;;;;;5.67;3.90;;;;;;;23.04;76.09;97236.41;4168392;28;21215;-82
2022/08/15 06:08:00;;;;;;;6.07;4.13;;;;;;;23.02;76.27;97222.47;4167043;28;21510;-83
2022/08/15 06:10:14;;;;;;;6.87;4.07;;;;;;;23.09;75.45;97226.78;4170014;28;20630;-83
2022/08/15 06:12:41;;;;;;;4.80;3.60;;;;;;;23.06;75.08;97231.69;4168252;28;20971;-83
2022/08/15 06:14:49;;;;;;;4.80;3.53;;;;;;;23.13;75.48;97225.34;4184293;28;20628;-83
2022/08/15 06:16:56;;;;;;;4.87;4.07;;;;;;;23.21;75.77;97219.81;4174258;28;20955;-83
2022/08/15 06:19:07;;;;;;;5.37;4.00;;;;;;;23.28;75.57;97226.00;4173752;28;20636;-83
2022/08/15 06:21:16;;;;;;;7.17;4.97;;;;;;;23.39;76.19;97228.03;4160185;28;20631;-82
2022/08/15 06:23:27;;;;;;;10.33;4.97;;;;;;;23.47;75.65;97225.16;4169633;28;21062;-82
2022/08/15 06:25:48;;;;;;;5.80;4.50;;;;;;;23.53;76.61;97235.81;4180580;28;20631;-82
2022/08/15 06:28:14;;;;;;;5.90;4.70;;;;;;;23.59;76.36;97235.00;4170722;28;20643;-82
2022/08/15 06:30:42;;;;;;;5.17;4.53;;;;;;;23.66;75.51;97227.84;4174580;28;20641;-82
2022/08/15 06:32:54;;;;;;;5.50;4.30;;;;;;;23.73;75.87;97223.34;4168435;28;20645;-82
2022/08/15 06:35:05;;;;;;;6.07;4.57;;;;;;;23.81;76.50;97223.13;4171164;28;20661;-82
2022/08/15 06:37:22;;;;;;;4.70;4.30;;;;;;;23.83;75.99;97221.03;4159665;28;20647;-82
2022/08/15 06:39:31;;;;;;;7.50;4.27;;;;;;;23.82;75.34;97222.91;4176197;28;20637;-82
2022/08/15 06:41:38;;;;;;;7.70;4.90;;;;;;;23.84;75.64;97220.03;4157995;28;20652;-82
2022/08/15 06:44:03;;;;;;;6.47;4.97;;;;;;;23.91;74.90;97220.84;4173787;28;20658;-82
2022/08/15 06:46:14;;;;;;;5.23;4.30;;;;;;;23.97;75.88;97218.16;4169207;28;20634;-82
2022/08/15 06:48:39;;;;;;;6.20;4.30;;;;;;;24.05;74.59;97209.13;4160156;28;21182;-82
2022/08/15 06:51:07;;;;;;;7.83;4.90;;;;;;;24.10;74.62;97209.31;4152340;28;20674;-82
2022/08/15 06:53:17;;;;;;;5.53;4.60;;;;;;;24.17;75.08;97224.25;4168673;28;20629;-82
2022/08/15 06:55:21;;;;;;;5.93;4.73;;;;;;;24.23;75.01;97229.56;4150851;28;21172;-82
2022/08/15 06:57:31;;;;;;;4.77;4.03;;;;;;;24.30;74.97;97237.56;4187195;28;20642;-82
2022/08/15 06:59:40;;;;;;;4.77;4.10;;;;;;;24.37;75.06;97243.69;4172568;28;21173;-82
2022/08/15 07:02:05;;;;;;;5.90;4.80;;;;;;;24.38;74.51;97251.50;4171967;28;20632;-82
2022/08/15 07:04:23;;;;;;;5.13;3.77;;;;;;;24.18;71.99;97242.72;4184942;28;20643;-82
2022/08/15 07:06:45;;;;;;;4.20;3.80;;;;;;;24.10;72.64;97244.78;4156306;28;21064;-82
2022/08/15 07:08:53;;;;;;;4.40;3.60;;;;;;;24.00;72.98;97246.25;4155018;28;20663;-82
2022/08/15 07:11:09;;;;;;;3.67;3.30;;;;;;;24.03;72.28;97253.84;4175237;28;20627;-82
2022/08/15 07:13:25;;;;;;;4.23;3.60;;;;;;;23.98;72.35;97246.47;4200137;28;20714;-82
2022/08/15 07:15:36;;;;;;;4.80;3.43;;;;;;;24.07;72.24;97255.03;4160548;28;20676;-82
2022/08/15 07:17:45;;;;;;;3.87;3.40;;;;;;;24.17;72.02;97257.06;4170778;28;20643;-82
2022/08/15 07:19:57;;;;;;;4.50;3.33;;;;;;;24.18;72.32;97257.91;4186693;28;20632;-82
2022/08/15 07:22:22;;;;;;;4.83;3.27;;;;;;;24.18;71.89;97266.69;4173864;28;20740;-82
2022/08/15 07:24:51;;;;;;;4.07;3.60;;;;;;;24.25;70.89;97264.00;4172293;28;20649;-83
2022/08/15 07:26:59;;;;;;;5.70;3.50;;;;;;;24.15;72.11;97263.63;4174491;28;20654;-82
2022/08/15 07:29:09;;;;;;;5.60;3.63;;;;;;;24.02;72.21;97271.66;4174710;28;21202;-82
2022/08/15 07:31:22;;;;;;;6.43;3.47;;;;;;;24.00;72.80;97257.72;4169446;28;20688;-82
2022/08/15 07:33:35;;;;;;;5.70;3.40;;;;;;;24.12;72.76;97263.25;4159971;28;20722;-82
2022/08/15 07:35:59;;;;;;;4.20;3.67;;;;;;;24.28;71.84;97269.75;4148846;28;20694;-82
2022/08/15 07:38:12;;;;;;;4.93;3.50;;;;;;;24.39;73.11;97274.47;4164807;28;20632;-83
2022/08/15 07:40:34;;;;;;;5.50;3.83;;;;;;;24.52;71.50;97277.13;4188302;28;20640;-82
2022/08/15 07:42:45;;;;;;;5.93;3.40;;;;;;;24.93;72.22;97274.88;4175708;28;20629;-82
2022/08/15 07:45:07;;;;;;;3.93;3.33;;;;;;;25.45;71.15;97281.53;4177664;28;20678;-82
2022/08/15 07:47:21;;;;;;;4.17;3.63;;;;;;;26.28;69.54;97279.19;4192459;28;20642;-82
2022/08/15 07:49:28;;;;;;;5.27;3.73;;;;;;;27.00;66.09;97290.72;4175958;28;20647;-82
2022/08/15 07:51:40;;;;;;;5.73;3.40;;;;;;;26.91;65.73;97292.88;4175281;28;20968;-82
2022/08/15 07:54:01;;;;;;;4.43;3.83;;;;;;;26.32;66.04;97288.44;4176172;28;20638;-81
2022/08/15 07:56:19;;;;;;;4.83;3.70;;;;;;;25.88;67.09;97279.78;4176644;28;20635;-83
2022/08/15 07:58:43;;;;;;;3.83;3.43;;;;;;;25.61;67.43;97278.34;4153903;28;20712;-82
2022/08/15 08:00:53;;;;;;;5.37;4.77;;;;;;;25.51;68.16;97278.00;4155159;28;20647;-83
2022/08/15 08:03:23;;;;;;;4.00;3.57;;;;;;;25.48;67.97;97278.44;4174076;28;20631;-83
2022/08/15 08:05:43;;;;;;;4.50;3.77;;;;;;;25.54;68.64;97274.88;4174512;28;20705;-82
2022/08/15 08:07:52;;;;;;;4.03;2.90;;;;;;;25.74;68.57;97281.75;4170435;28;20732;-82
2022/08/15 08:10:05;;;;;;;4.07;3.50;;;;;;;26.15;67.52;97285.47;4203273;28;20638;-82
2022/08/15 08:12:35;;;;;;;4.30;3.90;;;;;;;26.31;66.76;97278.75;4192722;28;20663;-82
2022/08/15 08:15:04;;;;;;;7.63;4.80;;;;;;;26.14;66.64;97283.03;4151613;28;20731;-82
2022/08/15 08:17:16;;;;;;;5.63;4.20;;;;;;;26.10;67.41;97279.97;4170730;28;21399;-83
2022/08/15 08:19:29;;;;;;;6.47;4.00;;;;;;;26.12;67.44;97288.59;4157786;28;21294;-83
2022/08/15 08:21:38;;;;;;;4.73;3.90;;;;;;;26.22;66.36;97280.91;4172260;28;20619;-82
2022/08/15 08:23:45;;;;;;;5.80;3.93;;;;;;;26.28;66.99;97284.56;4158465;28;20658;-83
2022/08/15 08:26:01;;;;;;;4.13;3.73;;;;;;;26.39;66.38;97286.53;4158092;28;21224;-83
2022/08/15 08:28:27;;;;;;;4.10;3.70;;;;;;;26.52;65.35;97284.50;4171081;28;20642;-82
2022/08/15 08:30:39;;;;;;;4.20;3.80;;;;;;;26.63;65.90;97294.47;4162562;28;20669;-83
2022/08/15 08:32:53;;;;;;;3.70;3.40;;;;;;;26.65;65.03;97290.50;4178745;28;21224;-83
2022/08/15 08:35:05;;;;;;;4.23;3.40;;;;;;;26.86;64.66;97281.22;4191219;28;21184;-83
2022/08/15 08:37:13;;;;;;;5.17;3.10;;;;;;;26.66;64.56;97288.66;4178887;28;20673;-83
2022/08/15 08:39:26;;;;;;;4.50;3.00;;;;;;;26.77;65.59;97290.59;4162607;28;20654;-82
2022/08/15 08:41:42;;;;;;;4.23;3.47;;;;;;;26.78;64.90;97287.69;4188102;28;20652;-82
2022/08/15 08:43:52;;;;;;;5.17;3.37;;;;;;;27.04;65.49;97288.19;4171925;28;20667;-82
2022/08/15 08:46:01;;;;;;;4.60;3.00;;;;;;;27.52;63.70;97297.03;4171105;28;20651;-82
2022/08/15 08:48:24;;;;;;;4.30;3.73;;;;;;;27.82;62.61;97301.28;4174098;28;20700;-82
2022/08/15 08:50:32;;;;;;;5.00;3.47;;;;;;;27.95;61.43;97300.22;4172948;28;21022;-82
2022/08/15 08:52:45;;;;;;;4.27;3.40;;;;;;;27.79;63.04;97295.56;4172215;28;20649;-82
2022/08/15 08:55:02;;;;;;;5.63;3.67;;;;;;;28.08;62.37;97295.47;4157399;28;21008;-82
2022/08/15 08:57:13;;;;;;;5.07;3.20;;;;;;;28.55;62.28;97298.75;4173035;28;20616;-82
2022/08/15 08:59:19;;;;;;;4.10;3.13;;;;;;;28.84;60.03;97299.66;4171351;28;20702;-82
2022/08/15 09:01:27;;;;;;;3.87;3.17;;;;;;;29.05;60.01;97300.63;4174888;28;20747;-82
2022/08/15 09:03:34;;;;;;;5.27;3.10;;;;;;;29.21;60.56;97299.88;4160389;28;21293;-82
2022/08/15 09:05:44;;;;;;;4.80;3.20;;;;;;;29.29;60.02;97302.22;4171821;28;21242;-83
2022/08/15 09:07:56;;;;;;;3.60;3.30;;;;;;;29.43;59.36;97303.53;4172940;28;21301;-83
2022/08/15 09:10:01;;;;;;;3.87;3.40;;;;;;;29.58;60.21;97298.44;4174370;28;20639;-83
2022/08/15 09:14:35;;;;;;;6.70;3.70;;;;;;;29.53;59.56;97290.31;4169539;28;20620;-83
2022/08/15 09:17:03;;;;;;;6.43;3.87;;;;;;;29.01;60.49;97282.53;4168398;28;21062;-83
2022/08/15 09:19:28;;;;;;;4.83;4.00;;;;;;;28.81;62.06;97286.72;4171124;28;20649;-83
2022/08/15 09:21:34;;;;;;;5.57;4.10;;;;;;;29.05;60.08;97295.25;4174385;28;20625;-83
2022/08/15 09:23:42;;;;;;;5.53;5.03;;;;;;;28.99;61.09;97290.84;4168922;28;20661;-84
2022/08/15 09:25:52;;;;;;;4.97;4.30;;;;;;;29.06;60.30;97293.38;4183892;28;20658;-82
2022/08/15 09:28:04;;;;;;;5.77;4.20;;;;;;;29.19;61.34;97299.28;4148639;28;20643;-83
2022/08/15 09:30:28;;;;;;;5.40;4.27;;;;;;;29.38;59.93;97298.09;4186966;28;21105;-83
2022/08/15 09:33:03;;;;;;;6.57;3.70;;;;;;;29.24;60.22;97296.72;4169184;28;20629;-82
2022/08/15 09:35:23;;;;;;;6.03;3.90;;;;;;;28.80;60.09;97293.13;4171222;28;20628;-82
2022/08/15 09:37:38;;;;;;;5.07;3.83;;;;;;;28.66;59.59;97291.72;4165417;28;20636;-82
2022/08/15 09:40:08;;;;;;;5.03;3.67;;;;;;;28.77;60.52;97290.91;4174651;28;20682;-82
2022/08/15 09:42:42;;;;;;;5.83;3.83;;;;;;;28.66;59.51;97284.50;4169374;28;20630;-82
2022/08/15 09:45:09;;;;;;;4.13;3.70;;;;;;;29.02;60.10;97290.38;4166544;28;20645;-83
2022/08/15 09:47:30;;;;;;;4.57;3.50;;;;;;;29.27;59.46;97295.44;4191163;28;20784;-83
2022/08/15 09:50:10;;;;;;;5.63;4.00;;;;;;;29.49;59.15;97289.94;4171030;28;20667;-82
2022/08/15 09:52:39;;;;;;;5.77;3.90;;;;;;;29.58;58.89;97283.13;4172799;28;20637;-82
2022/08/15 09:54:54;;;;;;;6.23;3.63;;;;;;;29.76;58.39;97282.09;4177698;28;20637;-82
2022/08/15 09:57:18;;;;;;;4.03;3.60;;;;;;;29.84;57.99;97284.41;4173067;28;20602;-83
2022/08/15 09:59:24;;;;;;;3.80;3.40;;;;;;;30.06;57.37;97291.50;4171878;28;20636;-83
2022/08/15 10:01:30;;;;;;;3.73;3.33;;;;;;;29.67;57.10;97280.84;4157515;28;20639;-82
2022/08/15 10:03:57;;;;;;;5.03;3.40;;;;;;;29.62;58.77;97278.09;4171415;28;20643;-82
2022/08/15 10:06:04;;;;;;;3.73;3.43;;;;;;;29.52;58.10;97280.59;4168365;28;20646;-82
2022/08/15 10:09:09;;;;;;;5.67;3.70;;;;;;;29.51;58.04;97271.72;4164530;28;20664;-83
2022/08/15 10:11:14;;;;;;;3.50;3.00;;;;;;;29.78;57.00;97271.88;4170878;28;20640;-81
2022/08/15 10:13:32;;;;;;;3.60;3.30;;;;;;;29.96;55.57;97270.63;4198345;28;21244;-79
2022/08/15 10:15:40;;;;;;;4.23;3.40;;;;;;;29.97;56.14;97268.75;4171543;28;20666;-79
2022/08/15 10:17:45;;;;;;;3.77;3.47;;;;;;;30.11;56.00;97261.94;4170424;28;21686;-80
2022/08/15 10:20:48;;;;;;;4.10;3.50;;;;;;;30.31;55.47;97259.53;4166757;28;20671;-80
2022/08/15 10:22:53;;;;;;;4.77;3.70;;;;;;;30.04;55.29;97256.75;4132863;28;20653;-80
2022/08/15 10:25:18;;;;;;;4.30;3.33;;;;;;;29.65;55.24;97256.88;4160460;28;20653;-80
2022/08/15 10:27:23;;;;;;;4.43;3.40;;;;;;;29.27;56.72;97250.53;4167474;28;20636;-79
2022/08/15 10:29:29;;;;;;;3.60;3.30;;;;;;;29.22;57.15;97246.94;4190374;28;20640;-80